createdAt,value
2019-02-22T00:00:10.636Z,1007.93
2019-02-22T00:01:10.640Z,1007.96
2019-02-22T00:02:10.643Z,1007.94
2019-02-22T00:03:10.595Z,1007.92
2019-02-22T00:04:10.581Z,1007.89
2019-02-22T00:05:10.575Z,1007.92
2019-02-22T00:06:10.562Z,1007.93
2019-02-22T00:07:10.585Z,1007.88
2019-02-22T00:08:10.539Z,1007.89
2019-02-22T00:09:10.522Z,1007.89
2019-02-22T00:10:10.516Z,1007.92
2019-02-22T00:11:10.506Z,1007.94
2019-02-22T00:12:10.515Z,1007.93
2019-02-22T00:13:10.483Z,1007.92
2019-02-22T00:14:10.471Z,1007.99
2019-02-22T00:15:10.457Z,1007.93
2019-02-22T00:16:10.440Z,1007.97
2019-02-22T00:17:10.455Z,1007.96
2019-02-22T00:18:10.420Z,1007.98
2019-02-22T00:19:10.405Z,1007.99
2019-02-22T00:20:10.391Z,1007.97
2019-02-22T00:21:10.379Z,1007.95
2019-02-22T00:22:10.392Z,1007.97
2019-02-22T00:23:10.356Z,1007.95
2019-02-22T00:24:10.381Z,1008.00
2019-02-22T00:25:10.330Z,1007.99
2019-02-22T00:26:11.148Z,1008.02
2019-02-22T00:27:10.341Z,1008.03
2019-02-22T00:28:10.299Z,1008.06
2019-02-22T00:29:10.291Z,1008.06
2019-02-22T00:30:10.282Z,1008.09
2019-02-22T00:31:10.258Z,1008.08
2019-02-22T00:32:10.289Z,1008.11
2019-02-22T00:33:10.239Z,1008.15
2019-02-22T00:34:10.330Z,1008.17
2019-02-22T00:35:10.269Z,1008.14
2019-02-22T00:36:10.294Z,1008.14
2019-02-22T00:37:10.262Z,1008.18
2019-02-22T00:38:10.194Z,1008.10
2019-02-22T00:39:13.176Z,1008.14
2019-02-22T00:40:10.187Z,1008.17
2019-02-22T00:41:10.145Z,1008.17
2019-02-22T00:42:10.159Z,1008.23
2019-02-22T00:43:10.122Z,1008.22
2019-02-22T00:44:10.114Z,1008.21
2019-02-22T00:45:10.095Z,1008.20
2019-02-22T00:46:10.083Z,1008.18
2019-02-22T00:47:10.112Z,1008.21
2019-02-22T00:48:10.066Z,1008.22
2019-02-22T00:49:10.073Z,1008.23
2019-02-22T00:50:10.041Z,1008.24
2019-02-22T00:51:10.026Z,1008.24
2019-02-22T00:52:10.020Z,1008.24
2019-02-22T00:53:10.009Z,1008.27
2019-02-22T00:54:10.034Z,1008.25
2019-02-22T00:55:09.984Z,1008.26
2019-02-22T00:56:09.965Z,1008.32
2019-02-22T00:57:09.958Z,1008.32
2019-02-22T00:58:09.944Z,1008.32
2019-02-22T00:59:09.969Z,1008.33
2019-02-22T01:00:09.930Z,1008.33
2019-02-22T01:01:09.909Z,1008.31
2019-02-22T01:02:09.897Z,1008.33
2019-02-22T01:03:09.887Z,1008.36
2019-02-22T01:04:09.890Z,1008.36
2019-02-22T01:05:09.894Z,1008.33
2019-02-22T01:06:09.861Z,1008.33
2019-02-22T01:07:09.857Z,1008.33
2019-02-22T01:08:09.841Z,1008.41
2019-02-22T01:09:09.850Z,1008.39
2019-02-22T01:10:09.810Z,1008.44
2019-02-22T01:11:09.792Z,1008.39
2019-02-22T01:12:09.781Z,1008.32
2019-02-22T01:13:09.803Z,1008.34
2019-02-22T01:14:09.763Z,1008.35
2019-02-22T01:15:09.752Z,1008.38
2019-02-22T01:16:09.737Z,1008.35
2019-02-22T01:17:09.729Z,1008.41
2019-02-22T01:18:09.737Z,1008.38
2019-02-22T01:19:09.699Z,1008.42
2019-02-22T01:20:09.694Z,1008.40
2019-02-22T01:21:09.737Z,1008.40
2019-02-22T01:22:09.668Z,1008.39
2019-02-22T01:23:09.656Z,1008.38
2019-02-22T01:24:09.649Z,1008.42
2019-02-22T01:25:09.647Z,1008.47
2019-02-22T01:26:09.647Z,1008.43
2019-02-22T01:27:09.624Z,1008.44
2019-02-22T01:28:09.606Z,1008.42
2019-02-22T01:29:09.574Z,1008.46
2019-02-22T01:30:09.566Z,1008.41
2019-02-22T01:31:09.599Z,1008.43
2019-02-22T01:32:09.544Z,1008.43
2019-02-22T01:33:09.529Z,1008.38
2019-02-22T01:34:09.522Z,1008.37
2019-02-22T01:35:09.506Z,1008.31
2019-02-22T01:36:09.520Z,1008.32
2019-02-22T01:37:09.523Z,1008.37
2019-02-22T01:38:09.473Z,1008.37
2019-02-22T01:39:09.493Z,1008.38
2019-02-22T01:40:09.445Z,1008.41
2019-02-22T01:41:09.432Z,1008.38
2019-02-22T01:42:09.425Z,1008.46
2019-02-22T01:43:09.435Z,1008.47
2019-02-22T01:44:09.407Z,1008.41
2019-02-22T01:45:09.387Z,1008.48
2019-02-22T01:46:09.384Z,1008.45
2019-02-22T01:47:09.372Z,1008.44
2019-02-22T01:48:09.373Z,1008.44
2019-02-22T01:49:09.363Z,1008.45
2019-02-22T01:50:09.332Z,1008.47
2019-02-22T01:51:09.331Z,1008.51
2019-02-22T01:52:09.308Z,1008.54
2019-02-22T01:53:09.299Z,1008.50
2019-02-22T01:54:09.316Z,1008.47
2019-02-22T01:55:09.280Z,1008.48
2019-02-22T01:56:09.261Z,1008.45
2019-02-22T01:57:09.242Z,1008.47
2019-02-22T01:58:09.231Z,1008.44
2019-02-22T01:59:09.258Z,1008.41
2019-02-22T02:00:09.211Z,1008.40
2019-02-22T02:01:09.209Z,1008.38
2019-02-22T02:02:09.226Z,1008.44
2019-02-22T02:03:09.175Z,1008.43
2019-02-22T02:04:09.166Z,1008.40
2019-02-22T02:05:09.176Z,1008.40
2019-02-22T02:06:09.144Z,1008.42
2019-02-22T02:07:09.152Z,1008.42
2019-02-22T02:08:09.120Z,1008.46
2019-02-22T02:09:09.106Z,1008.46
2019-02-22T02:10:09.092Z,1008.42
2019-02-22T02:11:09.080Z,1008.42
2019-02-22T02:12:09.111Z,1008.39
2019-02-22T02:13:09.053Z,1008.48
2019-02-22T02:14:09.065Z,1008.44
2019-02-22T02:15:09.047Z,1008.43
2019-02-22T02:16:09.019Z,1008.40
2019-02-22T02:17:09.043Z,1008.40
2019-02-22T02:18:09.049Z,1008.42
2019-02-22T02:19:08.984Z,1008.46
2019-02-22T02:20:09.020Z,1008.44
2019-02-22T02:21:08.963Z,1008.51
2019-02-22T02:22:08.973Z,1008.47
2019-02-22T02:23:08.948Z,1008.51
2019-02-22T02:24:08.928Z,1008.50
2019-02-22T02:25:08.920Z,1008.50
2019-02-22T02:26:08.904Z,1008.50
2019-02-22T02:27:08.926Z,1008.51
2019-02-22T02:28:08.885Z,1008.54
2019-02-22T02:29:08.875Z,1008.53
2019-02-22T02:30:08.862Z,1008.55
2019-02-22T02:31:08.877Z,1008.56
2019-02-22T02:32:08.848Z,1008.55
2019-02-22T02:33:08.830Z,1008.60
2019-02-22T02:34:08.813Z,1008.57
2019-02-22T02:35:08.799Z,1008.54
2019-02-22T02:36:08.823Z,1008.54
2019-02-22T02:37:08.789Z,1008.61
2019-02-22T02:38:08.770Z,1008.63
2019-02-22T02:39:08.752Z,1008.62
2019-02-22T02:40:08.778Z,1008.64
2019-02-22T02:41:11.473Z,1008.67
2019-02-22T02:42:08.746Z,1008.66
2019-02-22T02:43:08.712Z,1008.66
2019-02-22T02:44:08.697Z,1008.63
2019-02-22T02:45:08.737Z,1008.66
2019-02-22T02:46:08.703Z,1008.69
2019-02-22T02:47:08.661Z,1008.71
2019-02-22T02:48:08.650Z,1008.72
2019-02-22T02:49:08.638Z,1008.68
2019-02-22T02:50:08.666Z,1008.66
2019-02-22T02:51:08.617Z,1008.73
2019-02-22T02:52:08.619Z,1008.77
2019-02-22T02:53:08.592Z,1008.74
2019-02-22T02:54:08.580Z,1008.75
2019-02-22T02:55:08.596Z,1008.75
2019-02-22T02:56:08.552Z,1008.73
2019-02-22T02:57:08.549Z,1008.72
2019-02-22T02:58:08.534Z,1008.74
2019-02-22T02:59:08.528Z,1008.77
2019-02-22T03:00:08.555Z,1008.74
2019-02-22T03:01:08.531Z,1008.68
2019-02-22T03:02:08.493Z,1008.70
2019-02-22T03:03:08.488Z,1008.71
2019-02-22T03:04:08.461Z,1008.74
2019-02-22T03:05:08.474Z,1008.78
2019-02-22T03:06:08.460Z,1008.76
2019-02-22T03:07:08.422Z,1008.76
2019-02-22T03:08:08.411Z,1008.73
2019-02-22T03:09:08.407Z,1008.75
2019-02-22T03:10:08.438Z,1008.77
2019-02-22T03:11:19.725Z,1008.77
2019-02-22T03:12:09.362Z,1008.82
2019-02-22T03:13:08.353Z,1008.83
2019-02-22T03:14:08.342Z,1008.80
2019-02-22T03:15:08.367Z,1008.83
2019-02-22T03:16:08.326Z,1008.85
2019-02-22T03:17:08.305Z,1008.85
2019-02-22T03:18:08.295Z,1008.90
2019-02-22T03:19:08.284Z,1008.88
2019-02-22T03:20:08.304Z,1008.90
2019-02-22T03:21:08.261Z,1008.88
2019-02-22T03:22:08.249Z,1008.90
2019-02-22T03:23:08.242Z,1008.90
2019-02-22T03:24:08.224Z,1008.96
2019-02-22T03:25:08.250Z,1008.95
2019-02-22T03:26:08.197Z,1008.96
2019-02-22T03:27:08.187Z,1008.98
2019-02-22T03:28:08.174Z,1008.96
2019-02-22T03:29:08.171Z,1008.92
2019-02-22T03:30:08.190Z,1008.81
2019-02-22T03:31:08.178Z,1008.85
2019-02-22T03:32:08.133Z,1008.87
2019-02-22T03:33:08.117Z,1008.86
2019-02-22T03:34:08.112Z,1008.90
2019-02-22T03:35:08.094Z,1008.89
2019-02-22T03:36:08.120Z,1008.92
2019-02-22T03:37:08.103Z,1008.93
2019-02-22T03:38:08.054Z,1008.95
2019-02-22T03:39:08.044Z,1009.01
2019-02-22T03:40:08.032Z,1009.00
2019-02-22T03:41:08.053Z,1009.01
2019-02-22T03:42:08.012Z,1008.99
2019-02-22T03:43:08.021Z,1009.00
2019-02-22T03:44:07.987Z,1008.96
2019-02-22T03:45:07.971Z,1009.03
2019-02-22T03:46:07.992Z,1009.01
2019-02-22T03:47:07.978Z,1009.03
2019-02-22T03:48:07.938Z,1009.04
2019-02-22T03:49:07.927Z,1009.04
2019-02-22T03:50:07.912Z,1009.02
2019-02-22T03:51:07.906Z,1009.02
2019-02-22T03:52:07.912Z,1009.02
2019-02-22T03:53:07.882Z,1009.01
2019-02-22T03:54:07.864Z,1009.04
2019-02-22T03:55:07.855Z,1009.07
2019-02-22T03:56:07.858Z,1009.10
2019-02-22T03:57:07.886Z,1009.09
2019-02-22T03:58:07.814Z,1009.03
2019-02-22T03:59:07.803Z,1009.01
2019-02-22T04:00:07.799Z,1008.95
2019-02-22T04:01:07.781Z,1008.98
2019-02-22T04:02:07.811Z,1008.98
2019-02-22T04:03:07.764Z,1008.99
2019-02-22T04:04:07.744Z,1008.99
2019-02-22T04:05:07.733Z,1009.04
2019-02-22T04:06:07.757Z,1009.03
2019-02-22T04:07:07.715Z,1009.07
2019-02-22T04:08:07.703Z,1009.02
2019-02-22T04:09:07.693Z,1009.02
2019-02-22T04:10:07.739Z,1008.98
2019-02-22T04:11:07.662Z,1009.02
2019-02-22T04:12:07.661Z,1009.07
2019-02-22T04:13:07.637Z,1009.08
2019-02-22T04:14:07.631Z,1009.04
2019-02-22T04:15:07.641Z,1009.04
2019-02-22T04:16:07.607Z,1009.00
2019-02-22T04:17:07.590Z,1009.10
2019-02-22T04:18:07.614Z,1009.11
2019-02-22T04:19:07.561Z,1009.12
2019-02-22T04:20:07.548Z,1009.14
2019-02-22T04:21:07.570Z,1009.15
2019-02-22T04:22:07.527Z,1009.19
2019-02-22T04:23:07.542Z,1009.18
2019-02-22T04:24:07.503Z,1009.19
2019-02-22T04:25:07.494Z,1009.20
2019-02-22T04:26:07.512Z,1009.24
2019-02-22T04:27:07.475Z,1009.20
2019-02-22T04:28:07.457Z,1009.25
2019-02-22T04:29:07.452Z,1009.21
2019-02-22T04:30:07.431Z,1009.27
2019-02-22T04:31:07.448Z,1009.25
2019-02-22T04:32:07.409Z,1009.29
2019-02-22T04:33:07.398Z,1009.29
2019-02-22T04:34:07.430Z,1009.26
2019-02-22T04:35:07.421Z,1009.31
2019-02-22T04:36:07.372Z,1009.29
2019-02-22T04:37:07.352Z,1009.32
2019-02-22T04:38:07.343Z,1009.33
2019-02-22T04:39:07.363Z,1009.34
2019-02-22T04:40:07.356Z,1009.34
2019-02-22T04:41:07.318Z,1009.36
2019-02-22T04:42:07.294Z,1009.39
2019-02-22T04:43:07.286Z,1009.41
2019-02-22T04:44:07.271Z,1009.43
2019-02-22T04:45:07.293Z,1009.41
2019-02-22T04:46:07.253Z,1009.49
2019-02-22T04:47:07.240Z,1009.45
2019-02-22T04:48:07.262Z,1009.48
2019-02-22T04:49:07.215Z,1009.53
2019-02-22T04:50:07.234Z,1009.59
2019-02-22T04:51:07.219Z,1009.54
2019-02-22T04:52:07.187Z,1009.53
2019-02-22T04:53:07.204Z,1009.58
2019-02-22T04:54:07.157Z,1009.56
2019-02-22T04:55:07.171Z,1009.53
2019-02-22T04:56:07.184Z,1009.59
2019-02-22T04:57:07.133Z,1009.51
2019-02-22T04:58:07.121Z,1009.56
2019-02-22T04:59:07.106Z,1009.56
2019-02-22T05:00:07.103Z,1009.50
2019-02-22T05:01:07.107Z,1009.59
2019-02-22T05:02:07.067Z,1009.55
2019-02-22T05:03:07.051Z,1009.49
2019-02-22T05:04:07.052Z,1009.51
2019-02-22T05:05:07.074Z,1009.54
2019-02-22T05:06:07.017Z,1009.55
2019-02-22T05:07:07.034Z,1009.61
2019-02-22T05:08:06.993Z,1009.53
2019-02-22T05:09:06.987Z,1009.55
2019-02-22T05:10:06.981Z,1009.53
2019-02-22T05:11:06.962Z,1009.59
2019-02-22T05:12:10.854Z,1009.56
2019-02-22T05:13:06.932Z,1009.58
2019-02-22T05:14:06.946Z,1009.61
2019-02-22T05:15:12.625Z,1009.56
2019-02-22T05:16:07.905Z,1009.61
2019-02-22T05:17:06.913Z,1009.61
2019-02-22T05:18:06.931Z,1009.64
2019-02-22T05:19:06.901Z,1009.56
2019-02-22T05:20:06.862Z,1009.56
2019-02-22T05:21:06.843Z,1009.62
2019-02-22T05:22:06.866Z,1009.63
2019-02-22T05:23:07.637Z,1009.59
2019-02-22T05:24:06.826Z,1009.59
2019-02-22T05:25:06.791Z,1009.58
2019-02-22T05:26:06.782Z,1009.60
2019-02-22T05:27:06.807Z,1009.63
2019-02-22T05:28:06.761Z,1009.59
2019-02-22T05:29:06.746Z,1009.64
2019-02-22T05:30:06.755Z,1009.63
2019-02-22T05:31:06.723Z,1009.64
2019-02-22T05:32:06.750Z,1009.61
2019-02-22T05:33:06.715Z,1009.60
2019-02-22T05:34:06.691Z,1009.59
2019-02-22T05:35:06.703Z,1009.58
2019-02-22T05:36:06.667Z,1009.51
2019-02-22T05:37:06.652Z,1009.56
2019-02-22T05:38:06.685Z,1009.53
2019-02-22T05:39:18.086Z,1009.60
2019-02-22T05:40:07.645Z,1009.59
2019-02-22T05:41:06.607Z,1009.65
2019-02-22T05:42:06.619Z,1009.64
2019-02-22T05:43:06.580Z,1009.65
2019-02-22T05:44:06.602Z,1009.73
2019-02-22T05:45:06.557Z,1009.67
2019-02-22T05:46:06.580Z,1009.69
2019-02-22T05:47:06.538Z,1009.73
2019-02-22T05:48:06.519Z,1009.74
2019-02-22T05:49:06.515Z,1009.74
2019-02-22T05:50:06.501Z,1009.79
2019-02-22T05:51:06.605Z,1009.83
2019-02-22T05:52:06.468Z,1009.82
2019-02-22T05:53:06.464Z,1009.80
2019-02-22T05:54:06.450Z,1009.79
2019-02-22T05:55:06.437Z,1009.84
2019-02-22T05:56:06.450Z,1009.86
2019-02-22T05:57:06.411Z,1009.92
2019-02-22T05:58:06.408Z,1009.97
2019-02-22T05:59:06.396Z,1009.96
2019-02-22T06:00:06.430Z,1010.04
2019-02-22T06:01:06.984Z,1010.01
2019-02-22T06:02:06.356Z,1010.06
2019-02-22T06:03:06.340Z,1010.06
2019-02-22T06:04:06.330Z,1010.07
2019-02-22T06:05:06.350Z,1010.10
2019-02-22T06:06:06.334Z,1010.09
2019-02-22T06:07:06.296Z,1010.14
2019-02-22T06:08:08.778Z,1010.09
2019-02-22T06:09:06.288Z,1010.14
2019-02-22T06:10:06.262Z,1010.13
2019-02-22T06:11:06.289Z,1010.15
2019-02-22T06:12:06.249Z,1010.20
2019-02-22T06:13:06.229Z,1010.22
2019-02-22T06:14:06.247Z,1010.21
2019-02-22T06:15:06.207Z,1010.19
2019-02-22T06:16:06.224Z,1010.15
2019-02-22T06:17:14.209Z,1010.14
2019-02-22T06:18:07.184Z,1010.22
2019-02-22T06:19:06.161Z,1010.18
2019-02-22T06:20:06.196Z,1010.21
2019-02-22T06:21:06.159Z,1010.17
2019-02-22T06:22:06.125Z,1010.19
2019-02-22T06:23:06.119Z,1010.18
2019-02-22T06:24:06.151Z,1010.26
2019-02-22T06:25:06.115Z,1010.26
2019-02-22T06:26:06.110Z,1010.30
2019-02-22T06:27:06.070Z,1010.36
2019-02-22T06:28:06.062Z,1010.35
2019-02-22T06:29:06.158Z,1010.35
2019-02-22T06:30:06.072Z,1010.40
2019-02-22T06:31:06.021Z,1010.38
2019-02-22T06:32:06.015Z,1010.44
2019-02-22T06:33:06.012Z,1010.41
2019-02-22T06:34:06.030Z,1010.44
2019-02-22T06:35:08.709Z,1010.41
2019-02-22T06:36:05.979Z,1010.39
2019-02-22T06:37:05.972Z,1010.43
2019-02-22T06:38:05.948Z,1010.49
2019-02-22T06:39:05.974Z,1010.48
2019-02-22T06:40:05.925Z,1010.39
2019-02-22T06:41:05.924Z,1010.50
2019-02-22T06:42:05.909Z,1010.49
2019-02-22T06:43:05.884Z,1010.42
2019-02-22T06:44:05.905Z,1010.38
2019-02-22T06:45:05.881Z,1010.46
2019-02-22T06:46:05.884Z,1010.45
2019-02-22T06:47:06.084Z,1010.54
2019-02-22T06:48:05.839Z,1010.51
2019-02-22T06:49:05.818Z,1010.58
2019-02-22T06:50:05.885Z,1010.59
2019-02-22T06:51:05.797Z,1010.69
2019-02-22T06:52:05.833Z,1010.71
2019-02-22T06:53:05.774Z,1010.72
2019-02-22T06:54:05.772Z,1010.70
2019-02-22T06:55:05.760Z,1010.72
2019-02-22T06:56:05.739Z,1010.75
2019-02-22T06:57:05.767Z,1010.73
2019-02-22T06:58:05.714Z,1010.75
2019-02-22T06:59:05.706Z,1010.76
2019-02-22T07:00:05.704Z,1010.76
2019-02-22T07:01:05.679Z,1010.77
2019-02-22T07:02:05.695Z,1010.70
2019-02-22T07:03:05.657Z,1010.73
2019-02-22T07:04:05.646Z,1010.77
2019-02-22T07:05:05.649Z,1010.80
2019-02-22T07:06:05.866Z,1010.83
2019-02-22T07:07:05.755Z,1010.79
2019-02-22T07:08:05.683Z,1010.78
2019-02-22T07:09:05.635Z,1010.81
2019-02-22T07:10:05.646Z,1010.72
2019-02-22T07:11:06.290Z,1010.72
2019-02-22T07:12:06.262Z,1010.72
2019-02-22T07:13:05.589Z,1010.73
2019-02-22T07:14:05.560Z,1010.76
2019-02-22T07:15:05.536Z,1010.76
2019-02-22T07:16:05.516Z,1010.73
2019-02-22T07:17:05.542Z,1010.69
2019-02-22T07:18:05.510Z,1010.69
2019-02-22T07:19:05.505Z,1010.73
2019-02-22T07:20:05.467Z,1010.78
2019-02-22T07:21:05.458Z,1010.81
2019-02-22T07:22:05.468Z,1010.84
2019-02-22T07:23:05.469Z,1010.85
2019-02-22T07:24:05.420Z,1010.85
2019-02-22T07:25:05.406Z,1010.85
2019-02-22T07:26:05.407Z,1010.83
2019-02-22T07:27:05.412Z,1010.86
2019-02-22T07:28:05.373Z,1010.88
2019-02-22T07:29:05.363Z,1010.90
2019-02-22T07:30:05.374Z,1010.89
2019-02-22T07:31:05.401Z,1010.95
2019-02-22T07:32:06.423Z,1010.99
2019-02-22T07:33:05.312Z,1011.00
2019-02-22T07:34:05.305Z,1011.00
2019-02-22T07:35:05.319Z,1011.06
2019-02-22T07:36:05.286Z,1011.00
2019-02-22T07:37:05.289Z,1010.97
2019-02-22T07:38:05.258Z,1011.04
2019-02-22T07:39:05.255Z,1011.10
2019-02-22T07:40:05.267Z,1011.07
2019-02-22T07:41:05.230Z,1011.10
2019-02-22T07:42:05.206Z,1011.15
2019-02-22T07:43:07.916Z,1011.18
2019-02-22T07:44:05.215Z,1011.17
2019-02-22T07:45:05.173Z,1011.19
2019-02-22T07:46:05.158Z,1011.19
2019-02-22T07:47:05.149Z,1011.16
2019-02-22T07:48:05.162Z,1011.21
2019-02-22T07:49:05.714Z,1011.23
2019-02-22T07:50:05.167Z,1011.28
2019-02-22T07:51:05.108Z,1011.26
2019-02-22T07:52:05.098Z,1011.26
2019-02-22T07:53:05.120Z,1011.27
2019-02-22T07:54:05.092Z,1011.32
2019-02-22T07:55:05.051Z,1011.35
2019-02-22T07:56:05.097Z,1011.39
2019-02-22T07:57:05.033Z,1011.39
2019-02-22T07:58:05.053Z,1011.39
2019-02-22T07:59:05.030Z,1011.36
2019-02-22T08:00:05.018Z,1011.43
2019-02-22T08:01:05.054Z,1011.41
2019-02-22T08:02:04.974Z,1011.42
2019-02-22T08:03:04.968Z,1011.45
2019-02-22T08:04:04.940Z,1011.47
2019-02-22T08:05:04.950Z,1011.52
2019-02-22T08:06:04.920Z,1011.54
2019-02-22T08:07:04.934Z,1011.51
2019-02-22T08:08:04.891Z,1011.54
2019-02-22T08:09:04.876Z,1011.57
2019-02-22T08:10:04.896Z,1011.59
2019-02-22T08:11:04.874Z,1011.62
2019-02-22T08:12:04.910Z,1011.61
2019-02-22T08:13:04.831Z,1011.61
2019-02-22T08:14:07.645Z,1011.64
2019-02-22T08:15:04.804Z,1011.62
2019-02-22T08:16:04.796Z,1011.62
2019-02-22T08:17:04.810Z,1011.60
2019-02-22T08:18:04.796Z,1011.58
2019-02-22T08:19:04.795Z,1011.64
2019-02-22T08:20:04.744Z,1011.62
2019-02-22T08:21:04.759Z,1011.63
2019-02-22T08:22:04.724Z,1011.62
2019-02-22T08:23:04.708Z,1011.63
2019-02-22T08:24:04.720Z,1011.62
2019-02-22T08:25:04.683Z,1011.65
2019-02-22T08:26:04.675Z,1011.64
2019-02-22T08:27:04.660Z,1011.68
2019-02-22T08:28:04.649Z,1011.67
2019-02-22T08:29:04.670Z,1011.67
2019-02-22T08:30:04.623Z,1011.71
2019-02-22T08:31:04.612Z,1011.71
2019-02-22T08:32:04.602Z,1011.71
2019-02-22T08:33:04.610Z,1011.77
2019-02-22T08:34:04.607Z,1011.76
2019-02-22T08:35:04.570Z,1011.81
2019-02-22T08:36:04.574Z,1011.79
2019-02-22T08:37:04.538Z,1011.86
2019-02-22T08:38:04.524Z,1011.81
2019-02-22T08:39:04.553Z,1011.82
2019-02-22T08:40:04.752Z,1011.85
2019-02-22T08:41:04.545Z,1011.83
2019-02-22T08:42:04.478Z,1011.89
2019-02-22T08:44:14.312Z,1011.95
2019-02-22T08:45:14.235Z,1011.98
2019-02-22T08:46:14.222Z,1012.01
2019-02-22T08:47:14.212Z,1012.08
2019-02-22T08:48:14.207Z,1012.13
2019-02-22T08:49:14.188Z,1012.12
2019-02-22T08:50:14.604Z,1012.05
2019-02-22T08:51:14.175Z,1012.17
2019-02-22T08:52:14.169Z,1012.18
2019-02-22T08:53:14.149Z,1012.16
2019-02-22T08:54:14.131Z,1012.19
2019-02-22T08:55:14.111Z,1012.24
2019-02-22T08:56:14.150Z,1012.25
2019-02-22T08:57:14.107Z,1012.24
2019-02-22T08:58:14.103Z,1012.24
2019-02-22T08:59:14.069Z,1012.28
2019-02-22T09:00:14.072Z,1012.25
2019-02-22T09:01:14.065Z,1012.31
2019-02-22T09:02:14.108Z,1012.28
2019-02-22T09:03:14.033Z,1012.24
2019-02-22T09:04:14.006Z,1012.23
2019-02-22T09:05:13.993Z,1012.21
2019-02-22T09:06:14.037Z,1012.29
2019-02-22T09:07:13.975Z,1012.32
2019-02-22T09:08:13.982Z,1012.33
2019-02-22T09:09:13.948Z,1012.30
2019-02-22T09:10:13.953Z,1012.34
2019-02-22T09:11:13.923Z,1012.34
2019-02-22T09:12:13.932Z,1012.39
2019-02-22T09:13:13.898Z,1012.32
2019-02-22T09:14:13.976Z,1012.35
2019-02-22T09:15:13.874Z,1012.35
2019-02-22T09:16:13.898Z,1012.38
2019-02-22T09:17:13.865Z,1012.45
2019-02-22T09:18:13.855Z,1012.44
2019-02-22T09:19:13.829Z,1012.55
2019-02-22T09:20:13.861Z,1012.55
2019-02-22T09:21:13.809Z,1012.60
2019-02-22T09:22:22.390Z,1012.81
2019-02-22T09:23:14.788Z,1012.69
2019-02-22T09:24:13.791Z,1012.69
2019-02-22T09:25:13.764Z,1012.68
2019-02-22T09:26:13.779Z,1012.74
2019-02-22T09:27:13.734Z,1012.78
2019-02-22T09:28:13.741Z,1012.70
2019-02-22T09:29:13.772Z,1012.72
2019-02-22T09:30:13.711Z,1012.77
2019-02-22T09:31:13.716Z,1012.75
2019-02-22T09:32:13.697Z,1012.75
2019-02-22T09:33:13.690Z,1012.83
2019-02-22T09:34:13.667Z,1012.87
2019-02-22T09:35:13.658Z,1012.87
2019-02-22T09:36:13.643Z,1012.86
2019-02-22T09:37:13.627Z,1012.93
2019-02-22T09:38:13.682Z,1012.86
2019-02-22T09:39:13.600Z,1013.19
2019-02-22T09:40:14.788Z,1013.11
2019-02-22T09:41:13.574Z,1012.83
2019-02-22T09:42:13.575Z,1012.79
2019-02-22T09:43:13.551Z,1012.79
2019-02-22T09:44:13.565Z,1012.94
2019-02-22T09:45:13.534Z,1012.95
2019-02-22T09:46:13.544Z,1013.46
2019-02-22T09:47:13.513Z,1013.31
2019-02-22T09:48:13.497Z,1013.21
2019-02-22T09:49:13.493Z,1012.91
2019-02-22T09:50:13.520Z,1012.86
2019-02-22T09:51:13.479Z,1012.86
2019-02-22T09:52:13.455Z,1012.80
2019-02-22T09:53:13.459Z,1012.72
2019-02-22T09:54:13.430Z,1012.74
2019-02-22T09:55:13.433Z,1012.74
2019-02-22T09:56:13.517Z,1012.80
2019-02-22T09:57:13.397Z,1012.74
2019-02-22T09:58:13.443Z,1012.76
2019-02-22T09:59:13.370Z,1012.74
2019-02-22T10:00:13.422Z,1012.69
2019-02-22T10:01:13.370Z,1012.76
2019-02-22T10:02:13.390Z,1012.74
2019-02-22T10:03:13.393Z,1012.68
2019-02-22T10:04:13.348Z,1012.72
2019-02-22T10:05:13.302Z,1012.74
2019-02-22T10:06:13.295Z,1012.77
2019-02-22T10:07:13.283Z,1012.78
2019-02-22T10:08:13.313Z,1012.77
2019-02-22T10:09:13.259Z,1012.77
2019-02-22T10:10:13.280Z,1012.82
2019-02-22T10:11:13.235Z,1012.88
2019-02-22T10:12:13.237Z,1012.95
2019-02-22T10:13:13.220Z,1012.87
2019-02-22T10:14:13.226Z,1012.92
2019-02-22T10:15:13.203Z,1012.91
2019-02-22T10:16:13.187Z,1012.98
2019-02-22T10:17:13.190Z,1012.89
2019-02-22T10:18:13.158Z,1012.85
2019-02-22T10:19:13.209Z,1012.84
2019-02-22T10:20:13.169Z,1012.83
2019-02-22T10:21:13.138Z,1012.83
2019-02-22T10:22:13.155Z,1012.82
2019-02-22T10:23:13.103Z,1012.89
2019-02-22T10:24:13.140Z,1012.83
2019-02-22T10:25:13.122Z,1012.86
2019-02-22T10:26:13.164Z,1012.91
2019-02-22T10:27:13.056Z,1012.85
2019-02-22T10:28:17.780Z,1012.86
2019-02-22T10:29:14.060Z,1012.89
2019-02-22T10:30:13.044Z,1012.91
2019-02-22T10:31:13.048Z,1012.99
2019-02-22T10:32:13.018Z,1013.07
2019-02-22T10:33:12.993Z,1013.13
2019-02-22T10:34:12.997Z,1013.05
2019-02-22T10:35:12.972Z,1013.02
2019-02-22T10:36:12.964Z,1012.96
2019-02-22T10:37:12.958Z,1012.94
2019-02-22T10:38:12.948Z,1012.98
2019-02-22T10:39:12.923Z,1012.96
2019-02-22T10:40:12.920Z,1012.96
2019-02-22T10:41:12.904Z,1013.01
2019-02-22T10:42:12.919Z,1013.03
2019-02-22T10:43:12.913Z,1013.02
2019-02-22T10:44:17.654Z,1013.03
2019-02-22T10:45:13.849Z,1013.05
2019-02-22T10:46:12.840Z,1013.06
2019-02-22T10:47:12.829Z,1014.18
2019-02-22T10:48:12.847Z,1013.62
2019-02-22T10:49:12.811Z,1014.46
2019-02-22T10:50:12.874Z,1014.40
2019-02-22T10:51:12.821Z,1014.46
2019-02-22T10:52:12.791Z,1014.51
2019-02-22T10:53:12.769Z,1014.55
2019-02-22T10:54:12.760Z,1013.76
2019-02-22T10:55:12.814Z,1013.18
2019-02-22T10:56:12.751Z,1013.15
2019-02-22T10:57:12.724Z,1013.06
2019-02-22T10:58:12.707Z,1013.07
2019-02-22T10:59:12.713Z,1013.07
2019-02-22T11:00:12.780Z,1013.02
2019-02-22T11:01:12.709Z,1013.03
2019-02-22T11:02:12.737Z,1013.00
2019-02-22T11:03:12.704Z,1013.01
2019-02-22T11:04:12.643Z,1013.01
2019-02-22T11:05:12.683Z,1012.98
2019-02-22T11:06:12.630Z,1012.98
2019-02-22T11:07:12.610Z,1013.07
2019-02-22T11:08:12.642Z,1013.05
2019-02-22T11:09:12.610Z,1013.07
2019-02-22T11:10:12.579Z,1013.09
2019-02-22T11:11:12.571Z,1013.09
2019-02-22T11:12:12.565Z,1013.04
2019-02-22T11:13:12.569Z,1013.01
2019-02-22T11:14:12.594Z,1013.05
2019-02-22T11:15:12.517Z,1013.04
2019-02-22T11:16:12.517Z,1013.07
2019-02-22T11:17:12.496Z,1013.05
2019-02-22T11:18:12.523Z,1013.10
2019-02-22T11:19:12.504Z,1013.10
2019-02-22T11:20:12.500Z,1013.13
2019-02-22T11:21:12.465Z,1013.12
2019-02-22T11:22:12.442Z,1013.12
2019-02-22T11:23:12.466Z,1013.10
2019-02-22T11:24:12.460Z,1013.13
2019-02-22T11:25:12.408Z,1013.14
2019-02-22T11:26:12.414Z,1013.14
2019-02-22T11:27:12.453Z,1013.20
2019-02-22T11:28:12.422Z,1013.17
2019-02-22T11:29:12.394Z,1013.17
2019-02-22T11:30:12.360Z,1013.19
2019-02-22T11:31:12.336Z,1013.22
2019-02-22T11:32:12.377Z,1013.20
2019-02-22T11:33:12.334Z,1013.25
2019-02-22T11:34:12.323Z,1013.28
2019-02-22T11:35:12.294Z,1013.30
2019-02-22T11:36:12.286Z,1013.24
2019-02-22T11:37:12.283Z,1013.23
2019-02-22T11:38:12.294Z,1013.17
2019-02-22T11:39:12.264Z,1013.14
2019-02-22T11:40:12.234Z,1013.20
2019-02-22T11:41:12.225Z,1013.18
2019-02-22T11:42:12.223Z,1013.13
2019-02-22T11:43:12.235Z,1013.10
2019-02-22T11:44:12.209Z,1013.15
2019-02-22T11:45:12.178Z,1013.13
2019-02-22T11:46:12.167Z,1013.15
2019-02-22T11:47:12.173Z,1013.15
2019-02-22T11:48:12.165Z,1013.12
2019-02-22T11:49:12.141Z,1013.06
2019-02-22T11:50:12.143Z,1013.15
2019-02-22T11:51:12.111Z,1013.12
2019-02-22T11:52:12.143Z,1013.17
2019-02-22T11:53:12.107Z,1013.16
2019-02-22T11:54:12.079Z,1013.19
2019-02-22T11:55:12.065Z,1013.22
2019-02-22T11:56:12.110Z,1013.25
2019-02-22T11:57:12.078Z,1013.23
2019-02-22T11:58:12.051Z,1013.20
2019-02-22T11:59:12.027Z,1013.26
2019-02-22T12:00:12.008Z,1013.22
2019-02-22T12:01:12.006Z,1013.21
2019-02-22T12:02:12.066Z,1013.26
2019-02-22T12:03:23.910Z,1013.25
2019-02-22T12:04:12.990Z,1013.26
2019-02-22T12:05:11.966Z,1013.29
2019-02-22T12:06:11.941Z,1013.27